sensor_id;sensor_type;location;lat;lon;timestamp;P1;durP1;ratioP1;P2;durP2;ratioP2
12601;SDS011;30282;16.436;99.370;2023-12-04T00:00:59;10.00;;;5.43;;
12601;SDS011;30282;16.436;99.370;2023-12-04T00:03:30;13.20;;;5.60;;
12601;SDS011;30282;16.436;99.370;2023-12-04T00:06:00;12.90;;;5.20;;
12601;SDS011;30282;16.436;99.370;2023-12-04T00:08:31;18.57;;;6.40;;
12601;SDS011;30282;16.436;99.370;2023-12-04T00:11:01;10.87;;;5.00;;
12601;SDS011;30282;16.436;99.370;2023-12-04T00:13:33;10.57;;;5.80;;
12601;SDS011;30282;16.436;99.370;2023-12-04T00:16:05;19.43;;;6.67;;
12601;SDS011;30282;16.436;99.370;2023-12-04T00:18:35;8.70;;;5.17;;
12601;SDS011;30282;16.436;99.370;2023-12-04T00:21:07;14.50;;;5.23;;
12601;SDS011;30282;16.436;99.370;2023-12-04T00:23:36;11.23;;;5.50;;
12601;SDS011;30282;16.436;99.370;2023-12-04T00:26:05;10.83;;;4.63;;
12601;SDS011;30282;16.436;99.370;2023-12-04T00:28:46;13.87;;;5.30;;
12601;SDS011;30282;16.436;99.370;2023-12-04T00:31:15;12.43;;;5.50;;
12601;SDS011;30282;16.436;99.370;2023-12-04T00:33:44;13.10;;;6.47;;
12601;SDS011;30282;16.436;99.370;2023-12-04T00:36:14;14.97;;;5.30;;
12601;SDS011;30282;16.436;99.370;2023-12-04T00:38:45;10.90;;;4.73;;
12601;SDS011;30282;16.436;99.370;2023-12-04T00:41:14;9.93;;;4.80;;
12601;SDS011;30282;16.436;99.370;2023-12-04T00:43:44;14.63;;;5.03;;
12601;SDS011;30282;16.436;99.370;2023-12-04T00:46:15;10.40;;;5.00;;
12601;SDS011;30282;16.436;99.370;2023-12-04T00:48:44;11.63;;;5.70;;
12601;SDS011;30282;16.436;99.370;2023-12-04T00:51:16;9.63;;;4.67;;
12601;SDS011;30282;16.436;99.370;2023-12-04T00:53:45;11.10;;;5.30;;
12601;SDS011;30282;16.436;99.370;2023-12-04T00:56:15;15.23;;;4.67;;
12601;SDS011;30282;16.436;99.370;2023-12-04T00:58:46;18.50;;;5.03;;
12601;SDS011;30282;16.436;99.370;2023-12-04T01:01:15;20.93;;;6.07;;
12601;SDS011;30282;16.436;99.370;2023-12-04T01:03:44;12.40;;;5.90;;
12601;SDS011;30282;16.436;99.370;2023-12-04T01:06:20;7.97;;;4.07;;
12601;SDS011;30282;16.436;99.370;2023-12-04T01:08:50;10.30;;;4.53;;
12601;SDS011;30282;16.436;99.370;2023-12-04T01:11:20;10.07;;;4.70;;
12601;SDS011;30282;16.436;99.370;2023-12-04T01:13:51;11.07;;;4.53;;
12601;SDS011;30282;16.436;99.370;2023-12-04T01:16:20;9.00;;;4.97;;
12601;SDS011;30282;16.436;99.370;2023-12-04T01:18:50;11.83;;;3.97;;
12601;SDS011;30282;16.436;99.370;2023-12-04T01:21:27;31.83;;;6.43;;
12601;SDS011;30282;16.436;99.370;2023-12-04T01:23:57;13.07;;;5.07;;
12601;SDS011;30282;16.436;99.370;2023-12-04T01:26:28;8.70;;;4.50;;
12601;SDS011;30282;16.436;99.370;2023-12-04T01:29:00;8.70;;;4.40;;
12601;SDS011;30282;16.436;99.370;2023-12-04T01:31:29;7.27;;;4.27;;
12601;SDS011;30282;16.436;99.370;2023-12-04T01:33:58;10.33;;;4.30;;
12601;SDS011;30282;16.436;99.370;2023-12-04T01:36:28;14.80;;;5.43;;
12601;SDS011;30282;16.436;99.370;2023-12-04T01:38:57;10.47;;;4.30;;
12601;SDS011;30282;16.436;99.370;2023-12-04T01:41:27;9.07;;;4.80;;
12601;SDS011;30282;16.436;99.370;2023-12-04T01:43:56;9.57;;;4.60;;
12601;SDS011;30282;16.436;99.370;2023-12-04T01:46:27;11.03;;;5.53;;
12601;SDS011;30282;16.436;99.370;2023-12-04T01:48:58;11.80;;;4.50;;
12601;SDS011;30282;16.436;99.370;2023-12-04T01:51:30;6.90;;;3.90;;
12601;SDS011;30282;16.436;99.370;2023-12-04T01:54:00;9.80;;;4.73;;
12601;SDS011;30282;16.436;99.370;2023-12-04T01:56:32;10.80;;;4.73;;
12601;SDS011;30282;16.436;99.370;2023-12-04T01:59:05;9.27;;;5.13;;
12601;SDS011;30282;16.436;99.370;2023-12-04T02:01:37;35.03;;;6.03;;
12601;SDS011;30282;16.436;99.370;2023-12-04T02:04:06;10.47;;;4.20;;
12601;SDS011;30282;16.436;99.370;2023-12-04T02:06:36;8.67;;;3.83;;
12601;SDS011;30282;16.436;99.370;2023-12-04T02:09:06;8.80;;;4.30;;
12601;SDS011;30282;16.436;99.370;2023-12-04T02:11:38;8.23;;;4.40;;
12601;SDS011;30282;16.436;99.370;2023-12-04T02:14:09;9.03;;;4.30;;
12601;SDS011;30282;16.436;99.370;2023-12-04T02:16:40;12.00;;;4.20;;
12601;SDS011;30282;16.436;99.370;2023-12-04T02:19:10;12.53;;;4.13;;
12601;SDS011;30282;16.436;99.370;2023-12-04T02:21:43;10.57;;;4.80;;
12601;SDS011;30282;16.436;99.370;2023-12-04T02:24:16;10.00;;;4.53;;
12601;SDS011;30282;16.436;99.370;2023-12-04T02:26:46;6.70;;;3.73;;
12601;SDS011;30282;16.436;99.370;2023-12-04T02:29:27;9.17;;;4.53;;
12601;SDS011;30282;16.436;99.370;2023-12-04T02:32:03;7.83;;;4.17;;
12601;SDS011;30282;16.436;99.370;2023-12-04T02:34:36;9.93;;;4.77;;
12601;SDS011;30282;16.436;99.370;2023-12-04T02:37:06;10.30;;;5.00;;
12601;SDS011;30282;16.436;99.370;2023-12-04T02:39:41;9.20;;;4.70;;
12601;SDS011;30282;16.436;99.370;2023-12-04T02:42:19;9.20;;;4.27;;
12601;SDS011;30282;16.436;99.370;2023-12-04T02:44:51;6.43;;;4.00;;
12601;SDS011;30282;16.436;99.370;2023-12-04T02:47:23;10.87;;;4.17;;
12601;SDS011;30282;16.436;99.370;2023-12-04T02:49:55;6.53;;;3.87;;
12601;SDS011;30282;16.436;99.370;2023-12-04T02:52:32;9.60;;;4.33;;
12601;SDS011;30282;16.436;99.370;2023-12-04T02:55:09;14.13;;;5.80;;
12601;SDS011;30282;16.436;99.370;2023-12-04T02:57:39;9.67;;;5.20;;
12601;SDS011;30282;16.436;99.370;2023-12-04T03:00:34;16.73;;;6.57;;
12601;SDS011;30282;16.436;99.370;2023-12-04T03:03:08;14.50;;;4.40;;
12601;SDS011;30282;16.436;99.370;2023-12-04T03:05:37;10.13;;;3.80;;
12601;SDS011;30282;16.436;99.370;2023-12-04T03:08:09;11.07;;;4.50;;
12601;SDS011;30282;16.436;99.370;2023-12-04T03:10:40;7.57;;;3.90;;
12601;SDS011;30282;16.436;99.370;2023-12-04T03:13:12;7.93;;;5.10;;
12601;SDS011;30282;16.436;99.370;2023-12-04T03:15:42;16.00;;;6.57;;
12601;SDS011;30282;16.436;99.370;2023-12-04T03:18:11;11.50;;;5.50;;
12601;SDS011;30282;16.436;99.370;2023-12-04T03:20:43;9.03;;;4.83;;
12601;SDS011;30282;16.436;99.370;2023-12-04T03:23:14;16.90;;;4.23;;
12601;SDS011;30282;16.436;99.370;2023-12-04T03:25:48;9.93;;;4.53;;
12601;SDS011;30282;16.436;99.370;2023-12-04T03:28:18;8.47;;;4.20;;
12601;SDS011;30282;16.436;99.370;2023-12-04T03:31:00;9.60;;;4.90;;
12601;SDS011;30282;16.436;99.370;2023-12-04T03:33:43;8.40;;;4.43;;
12601;SDS011;30282;16.436;99.370;2023-12-04T03:36:13;8.20;;;4.37;;
12601;SDS011;30282;16.436;99.370;2023-12-04T03:41:25;13.20;;;5.10;;
12601;SDS011;30282;16.436;99.370;2023-12-04T03:46:28;11.70;;;5.20;;
12601;SDS011;30282;16.436;99.370;2023-12-04T03:49:10;14.80;;;5.07;;
12601;SDS011;30282;16.436;99.370;2023-12-04T03:51:57;13.93;;;5.33;;
12601;SDS011;30282;16.436;99.370;2023-12-04T03:54:34;7.93;;;3.97;;
12601;SDS011;30282;16.436;99.370;2023-12-04T03:57:05;8.07;;;4.80;;
12601;SDS011;30282;16.436;99.370;2023-12-04T03:59:43;11.13;;;5.23;;
12601;SDS011;30282;16.436;99.370;2023-12-04T04:02:12;8.13;;;4.60;;
12601;SDS011;30282;16.436;99.370;2023-12-04T04:04:43;10.77;;;5.83;;
12601;SDS011;30282;16.436;99.370;2023-12-04T04:07:15;13.47;;;5.60;;
12601;SDS011;30282;16.436;99.370;2023-12-04T04:09:45;10.27;;;5.70;;
12601;SDS011;30282;16.436;99.370;2023-12-04T04:12:23;12.47;;;4.50;;
12601;SDS011;30282;16.436;99.370;2023-12-04T04:14:52;9.97;;;5.17;;
12601;SDS011;30282;16.436;99.370;2023-12-04T04:17:22;12.43;;;4.83;;
12601;SDS011;30282;16.436;99.370;2023-12-04T04:19:52;8.83;;;4.70;;
12601;SDS011;30282;16.436;99.370;2023-12-04T04:22:21;12.53;;;5.13;;
12601;SDS011;30282;16.436;99.370;2023-12-04T04:24:51;7.00;;;4.43;;
12601;SDS011;30282;16.436;99.370;2023-12-04T04:27:25;9.10;;;4.00;;
12601;SDS011;30282;16.436;99.370;2023-12-04T04:29:54;18.53;;;4.97;;
12601;SDS011;30282;16.436;99.370;2023-12-04T04:32:23;14.00;;;5.40;;
12601;SDS011;30282;16.436;99.370;2023-12-04T04:34:53;12.63;;;6.20;;
12601;SDS011;30282;16.436;99.370;2023-12-04T04:37:22;10.73;;;6.20;;
12601;SDS011;30282;16.436;99.370;2023-12-04T04:39:51;15.13;;;8.07;;
12601;SDS011;30282;16.436;99.370;2023-12-04T04:42:23;12.07;;;6.83;;
12601;SDS011;30282;16.436;99.370;2023-12-04T04:44:53;17.90;;;8.20;;
12601;SDS011;30282;16.436;99.370;2023-12-04T04:47:23;11.57;;;6.07;;
12601;SDS011;30282;16.436;99.370;2023-12-04T04:49:52;12.40;;;6.80;;
12601;SDS011;30282;16.436;99.370;2023-12-04T04:52:21;9.93;;;6.30;;
12601;SDS011;30282;16.436;99.370;2023-12-04T04:54:50;12.13;;;6.67;;
12601;SDS011;30282;16.436;99.370;2023-12-04T04:57:20;14.50;;;6.83;;
12601;SDS011;30282;16.436;99.370;2023-12-04T04:59:51;10.17;;;6.47;;
12601;SDS011;30282;16.436;99.370;2023-12-04T05:02:20;12.73;;;6.33;;
12601;SDS011;30282;16.436;99.370;2023-12-04T05:04:49;17.33;;;8.40;;
12601;SDS011;30282;16.436;99.370;2023-12-04T05:07:19;14.77;;;8.97;;
12601;SDS011;30282;16.436;99.370;2023-12-04T05:09:48;14.03;;;7.03;;
12601;SDS011;30282;16.436;99.370;2023-12-04T05:12:17;14.40;;;6.43;;
12601;SDS011;30282;16.436;99.370;2023-12-04T05:14:46;16.40;;;7.80;;
12601;SDS011;30282;16.436;99.370;2023-12-04T05:17:17;17.23;;;7.80;;
12601;SDS011;30282;16.436;99.370;2023-12-04T05:19:47;13.80;;;7.80;;
12601;SDS011;30282;16.436;99.370;2023-12-04T05:22:16;12.57;;;7.17;;
12601;SDS011;30282;16.436;99.370;2023-12-04T05:24:45;13.33;;;6.93;;
12601;SDS011;30282;16.436;99.370;2023-12-04T05:27:14;17.83;;;5.80;;
12601;SDS011;30282;16.436;99.370;2023-12-04T05:29:44;8.57;;;4.90;;
12601;SDS011;30282;16.436;99.370;2023-12-04T05:32:13;19.47;;;7.93;;
12601;SDS011;30282;16.436;99.370;2023-12-04T05:34:44;15.57;;;9.60;;
12601;SDS011;30282;16.436;99.370;2023-12-04T05:37:13;16.73;;;10.27;;
12601;SDS011;30282;16.436;99.370;2023-12-04T05:39:43;15.40;;;9.03;;
12601;SDS011;30282;16.436;99.370;2023-12-04T05:42:12;16.17;;;7.70;;
12601;SDS011;30282;16.436;99.370;2023-12-04T05:44:42;11.83;;;6.57;;
12601;SDS011;30282;16.436;99.370;2023-12-04T05:47:11;12.93;;;5.70;;
12601;SDS011;30282;16.436;99.370;2023-12-04T05:49:40;7.43;;;4.20;;
12601;SDS011;30282;16.436;99.370;2023-12-04T05:52:11;16.70;;;9.83;;
12601;SDS011;30282;16.436;99.370;2023-12-04T05:54:40;19.50;;;9.17;;
12601;SDS011;30282;16.436;99.370;2023-12-04T05:57:10;12.20;;;7.00;;
12601;SDS011;30282;16.436;99.370;2023-12-04T05:59:39;12.53;;;7.40;;
12601;SDS011;30282;16.436;99.370;2023-12-04T06:02:09;16.70;;;6.93;;
12601;SDS011;30282;16.436;99.370;2023-12-04T06:04:38;21.13;;;6.10;;
12601;SDS011;30282;16.436;99.370;2023-12-04T06:07:07;8.43;;;5.27;;
12601;SDS011;30282;16.436;99.370;2023-12-04T06:09:39;9.30;;;3.90;;
12601;SDS011;30282;16.436;99.370;2023-12-04T06:12:09;11.23;;;6.27;;
12601;SDS011;30282;16.436;99.370;2023-12-04T06:14:38;9.57;;;4.90;;
12601;SDS011;30282;16.436;99.370;2023-12-04T06:17:07;8.27;;;5.10;;
12601;SDS011;30282;16.436;99.370;2023-12-04T06:19:40;13.13;;;5.67;;
12601;SDS011;30282;16.436;99.370;2023-12-04T06:22:12;11.53;;;5.60;;
12601;SDS011;30282;16.436;99.370;2023-12-04T06:24:46;13.00;;;4.70;;
12601;SDS011;30282;16.436;99.370;2023-12-04T06:27:16;8.83;;;4.70;;
12601;SDS011;30282;16.436;99.370;2023-12-04T06:29:46;8.53;;;4.70;;
12601;SDS011;30282;16.436;99.370;2023-12-04T06:32:17;8.70;;;5.40;;
12601;SDS011;30282;16.436;99.370;2023-12-04T06:34:50;10.93;;;5.63;;
12601;SDS011;30282;16.436;99.370;2023-12-04T06:37:21;11.40;;;5.80;;
12601;SDS011;30282;16.436;99.370;2023-12-04T06:39:53;12.57;;;5.67;;
12601;SDS011;30282;16.436;99.370;2023-12-04T06:42:24;12.37;;;6.03;;
12601;SDS011;30282;16.436;99.370;2023-12-04T06:44:54;12.73;;;5.80;;
12601;SDS011;30282;16.436;99.370;2023-12-04T06:47:23;11.07;;;6.20;;
12601;SDS011;30282;16.436;99.370;2023-12-04T06:49:53;8.70;;;4.83;;
12601;SDS011;30282;16.436;99.370;2023-12-04T06:52:25;5.83;;;3.63;;
12601;SDS011;30282;16.436;99.370;2023-12-04T06:55:00;8.40;;;3.97;;
12601;SDS011;30282;16.436;99.370;2023-12-04T06:57:32;7.00;;;4.00;;
12601;SDS011;30282;16.436;99.370;2023-12-04T07:00:24;5.83;;;3.50;;
12601;SDS011;30282;16.436;99.370;2023-12-04T07:02:54;11.53;;;4.20;;
12601;SDS011;30282;16.436;99.370;2023-12-04T07:05:23;6.40;;;3.43;;
12601;SDS011;30282;16.436;99.370;2023-12-04T07:07:52;9.50;;;3.77;;
12601;SDS011;30282;16.436;99.370;2023-12-04T07:10:26;8.83;;;4.30;;
12601;SDS011;30282;16.436;99.370;2023-12-04T07:12:56;7.73;;;3.97;;
12601;SDS011;30282;16.436;99.370;2023-12-04T07:15:44;7.93;;;4.10;;
12601;SDS011;30282;16.436;99.370;2023-12-04T07:18:14;8.43;;;3.90;;
12601;SDS011;30282;16.436;99.370;2023-12-04T07:20:43;7.37;;;4.27;;
12601;SDS011;30282;16.436;99.370;2023-12-04T07:23:12;8.57;;;3.90;;
12601;SDS011;30282;16.436;99.370;2023-12-04T07:25:43;7.73;;;4.13;;
12601;SDS011;30282;16.436;99.370;2023-12-04T07:28:13;17.80;;;3.93;;
12601;SDS011;30282;16.436;99.370;2023-12-04T07:30:42;15.97;;;4.57;;
12601;SDS011;30282;16.436;99.370;2023-12-04T07:33:12;7.43;;;4.33;;
12601;SDS011;30282;16.436;99.370;2023-12-04T07:35:41;8.00;;;4.73;;
12601;SDS011;30282;16.436;99.370;2023-12-04T07:38:10;7.30;;;4.07;;
12601;SDS011;30282;16.436;99.370;2023-12-04T07:40:39;8.10;;;4.57;;
12601;SDS011;30282;16.436;99.370;2023-12-04T07:43:10;12.50;;;6.00;;
12601;SDS011;30282;16.436;99.370;2023-12-04T07:45:40;12.73;;;6.50;;
12601;SDS011;30282;16.436;99.370;2023-12-04T07:48:10;10.47;;;6.00;;
12601;SDS011;30282;16.436;99.370;2023-12-04T07:50:39;16.53;;;6.00;;
12601;SDS011;30282;16.436;99.370;2023-12-04T07:53:08;12.03;;;5.40;;
12601;SDS011;30282;16.436;99.370;2023-12-04T07:55:39;10.20;;;5.00;;
12601;SDS011;30282;16.436;99.370;2023-12-04T07:58:11;9.87;;;4.87;;
12601;SDS011;30282;16.436;99.370;2023-12-04T08:00:40;10.80;;;4.80;;
12601;SDS011;30282;16.436;99.370;2023-12-04T08:03:09;7.20;;;4.40;;
12601;SDS011;30282;16.436;99.370;2023-12-04T08:05:38;7.13;;;3.97;;
12601;SDS011;30282;16.436;99.370;2023-12-04T08:08:08;14.43;;;3.70;;
12601;SDS011;30282;16.436;99.370;2023-12-04T08:10:37;7.63;;;3.47;;
12601;SDS011;30282;16.436;99.370;2023-12-04T08:13:07;6.30;;;3.20;;
12601;SDS011;30282;16.436;99.370;2023-12-04T08:15:38;6.80;;;3.80;;
12601;SDS011;30282;16.436;99.370;2023-12-04T08:18:07;18.23;;;4.70;;
12601;SDS011;30282;16.436;99.370;2023-12-04T08:20:37;6.27;;;4.23;;
12601;SDS011;30282;16.436;99.370;2023-12-04T08:23:07;10.60;;;4.33;;
12601;SDS011;30282;16.436;99.370;2023-12-04T08:25:36;16.23;;;4.97;;
12601;SDS011;30282;16.436;99.370;2023-12-04T08:28:06;10.70;;;5.13;;
12601;SDS011;30282;16.436;99.370;2023-12-04T08:30:38;7.90;;;5.03;;
12601;SDS011;30282;16.436;99.370;2023-12-04T08:33:07;12.63;;;5.47;;
12601;SDS011;30282;16.436;99.370;2023-12-04T08:35:36;9.63;;;4.57;;
12601;SDS011;30282;16.436;99.370;2023-12-04T08:38:06;10.47;;;5.20;;
12601;SDS011;30282;16.436;99.370;2023-12-04T08:40:36;11.20;;;4.87;;
12601;SDS011;30282;16.436;99.370;2023-12-04T08:43:05;10.63;;;4.13;;
12601;SDS011;30282;16.436;99.370;2023-12-04T08:45:35;9.17;;;4.83;;
12601;SDS011;30282;16.436;99.370;2023-12-04T08:48:06;7.43;;;4.23;;
12601;SDS011;30282;16.436;99.370;2023-12-04T08:50:36;7.80;;;4.53;;
12601;SDS011;30282;16.436;99.370;2023-12-04T08:53:05;7.17;;;4.13;;
12601;SDS011;30282;16.436;99.370;2023-12-04T08:55:35;9.40;;;4.10;;
12601;SDS011;30282;16.436;99.370;2023-12-04T08:58:04;12.70;;;4.70;;
12601;SDS011;30282;16.436;99.370;2023-12-04T09:00:33;9.37;;;4.63;;
12601;SDS011;30282;16.436;99.370;2023-12-04T09:03:05;8.57;;;5.10;;
12601;SDS011;30282;16.436;99.370;2023-12-04T09:05:34;10.43;;;5.30;;
12601;SDS011;30282;16.436;99.370;2023-12-04T09:08:04;16.57;;;6.43;;
12601;SDS011;30282;16.436;99.370;2023-12-04T09:10:34;15.23;;;5.77;;
12601;SDS011;30282;16.436;99.370;2023-12-04T09:13:03;9.60;;;4.83;;
12601;SDS011;30282;16.436;99.370;2023-12-04T09:15:33;9.93;;;4.67;;
12601;SDS011;30282;16.436;99.370;2023-12-04T09:18:02;8.17;;;4.13;;
12601;SDS011;30282;16.436;99.370;2023-12-04T09:20:34;10.80;;;4.87;;
12601;SDS011;30282;16.436;99.370;2023-12-04T09:23:03;12.77;;;5.63;;
12601;SDS011;30282;16.436;99.370;2023-12-04T09:25:33;8.20;;;4.60;;
12601;SDS011;30282;16.436;99.370;2023-12-04T09:28:05;9.37;;;5.07;;
12601;SDS011;30282;16.436;99.370;2023-12-04T09:30:35;10.87;;;5.70;;
12601;SDS011;30282;16.436;99.370;2023-12-04T09:33:07;21.43;;;11.97;;
12601;SDS011;30282;16.436;99.370;2023-12-04T09:35:36;77.10;;;35.53;;
12601;SDS011;30282;16.436;99.370;2023-12-04T09:38:06;12.20;;;5.43;;
12601;SDS011;30282;16.436;99.370;2023-12-04T09:40:41;12.03;;;5.67;;
12601;SDS011;30282;16.436;99.370;2023-12-04T09:43:24;7.53;;;4.97;;
12601;SDS011;30282;16.436;99.370;2023-12-04T09:45:55;9.40;;;4.70;;
12601;SDS011;30282;16.436;99.370;2023-12-04T09:48:26;17.30;;;5.87;;
12601;SDS011;30282;16.436;99.370;2023-12-04T09:50:57;11.70;;;4.50;;
12601;SDS011;30282;16.436;99.370;2023-12-04T09:53:30;13.93;;;5.70;;
12601;SDS011;30282;16.436;99.370;2023-12-04T09:56:00;7.77;;;4.27;;
12601;SDS011;30282;16.436;99.370;2023-12-04T09:58:32;12.23;;;4.53;;
12601;SDS011;30282;16.436;99.370;2023-12-04T10:01:02;25.23;;;6.73;;
12601;SDS011;30282;16.436;99.370;2023-12-04T10:03:34;14.67;;;6.23;;
12601;SDS011;30282;16.436;99.370;2023-12-04T10:06:05;7.40;;;4.47;;
12601;SDS011;30282;16.436;99.370;2023-12-04T10:08:36;8.50;;;4.80;;
12601;SDS011;30282;16.436;99.370;2023-12-04T10:11:06;14.23;;;5.13;;
12601;SDS011;30282;16.436;99.370;2023-12-04T10:13:35;15.27;;;7.67;;
12601;SDS011;30282;16.436;99.370;2023-12-04T10:16:06;14.73;;;7.23;;
12601;SDS011;30282;16.436;99.370;2023-12-04T10:18:37;16.43;;;8.10;;
12601;SDS011;30282;16.436;99.370;2023-12-04T10:21:07;16.87;;;8.40;;
12601;SDS011;30282;16.436;99.370;2023-12-04T10:23:37;17.07;;;8.90;;
12601;SDS011;30282;16.436;99.370;2023-12-04T10:26:07;18.83;;;8.20;;
12601;SDS011;30282;16.436;99.370;2023-12-04T10:28:37;15.13;;;7.70;;
12601;SDS011;30282;16.436;99.370;2023-12-04T10:31:06;11.10;;;6.30;;
12601;SDS011;30282;16.436;99.370;2023-12-04T10:33:38;10.83;;;5.77;;
12601;SDS011;30282;16.436;99.370;2023-12-04T10:36:11;14.40;;;5.83;;
12601;SDS011;30282;16.436;99.370;2023-12-04T10:38:41;10.93;;;5.47;;
12601;SDS011;30282;16.436;99.370;2023-12-04T10:41:12;12.70;;;4.30;;
12601;SDS011;30282;16.436;99.370;2023-12-04T10:43:46;13.00;;;5.00;;
12601;SDS011;30282;16.436;99.370;2023-12-04T10:46:16;9.87;;;4.70;;
12601;SDS011;30282;16.436;99.370;2023-12-04T10:48:48;23.53;;;5.77;;
12601;SDS011;30282;16.436;99.370;2023-12-04T10:51:18;14.33;;;5.20;;
12601;SDS011;30282;16.436;99.370;2023-12-04T10:53:49;12.23;;;4.90;;
12601;SDS011;30282;16.436;99.370;2023-12-04T10:56:19;23.53;;;5.80;;
12601;SDS011;30282;16.436;99.370;2023-12-04T10:59:00;15.43;;;5.70;;
12601;SDS011;30282;16.436;99.370;2023-12-04T11:01:31;17.07;;;5.73;;
12601;SDS011;30282;16.436;99.370;2023-12-04T11:04:02;15.60;;;5.83;;
12601;SDS011;30282;16.436;99.370;2023-12-04T11:06:35;10.83;;;6.27;;
12601;SDS011;30282;16.436;99.370;2023-12-04T11:09:08;12.87;;;7.00;;
12601;SDS011;30282;16.436;99.370;2023-12-04T11:11:39;23.90;;;7.10;;
12601;SDS011;30282;16.436;99.370;2023-12-04T11:14:11;28.00;;;10.70;;
12601;SDS011;30282;16.436;99.370;2023-12-04T11:16:48;27.33;;;10.67;;
12601;SDS011;30282;16.436;99.370;2023-12-04T11:19:29;18.10;;;8.17;;
12601;SDS011;30282;16.436;99.370;2023-12-04T11:22:05;26.80;;;10.50;;
12601;SDS011;30282;16.436;99.370;2023-12-04T11:24:37;15.40;;;6.63;;
12601;SDS011;30282;16.436;99.370;2023-12-04T11:27:08;21.03;;;10.23;;
12601;SDS011;30282;16.436;99.370;2023-12-04T11:29:38;25.47;;;11.33;;
12601;SDS011;30282;16.436;99.370;2023-12-04T11:32:08;32.53;;;16.20;;
12601;SDS011;30282;16.436;99.370;2023-12-04T11:34:53;28.27;;;13.47;;
12601;SDS011;30282;16.436;99.370;2023-12-04T11:37:23;27.37;;;14.10;;
12601;SDS011;30282;16.436;99.370;2023-12-04T11:39:54;25.97;;;12.20;;
12601;SDS011;30282;16.436;99.370;2023-12-04T11:42:24;32.40;;;16.13;;
12601;SDS011;30282;16.436;99.370;2023-12-04T11:44:56;38.67;;;15.80;;
12601;SDS011;30282;16.436;99.370;2023-12-04T11:47:27;31.80;;;16.23;;
12601;SDS011;30282;16.436;99.370;2023-12-04T11:50:00;42.43;;;17.27;;
12601;SDS011;30282;16.436;99.370;2023-12-04T11:52:32;46.23;;;19.67;;
12601;SDS011;30282;16.436;99.370;2023-12-04T11:55:03;51.07;;;21.50;;
12601;SDS011;30282;16.436;99.370;2023-12-04T11:57:34;46.03;;;18.43;;
12601;SDS011;30282;16.436;99.370;2023-12-04T12:00:10;32.10;;;15.60;;
12601;SDS011;30282;16.436;99.370;2023-12-04T12:02:46;29.47;;;14.77;;
12601;SDS011;30282;16.436;99.370;2023-12-04T12:05:31;39.63;;;16.17;;
12601;SDS011;30282;16.436;99.370;2023-12-04T12:08:01;28.73;;;15.30;;
12601;SDS011;30282;16.436;99.370;2023-12-04T12:10:31;30.30;;;14.73;;
12601;SDS011;30282;16.436;99.370;2023-12-04T12:13:02;24.83;;;13.60;;
12601;SDS011;30282;16.436;99.370;2023-12-04T12:15:31;29.20;;;16.60;;
12601;SDS011;30282;16.436;99.370;2023-12-04T12:18:01;25.30;;;13.27;;
12601;SDS011;30282;16.436;99.370;2023-12-04T12:20:36;24.60;;;12.07;;
12601;SDS011;30282;16.436;99.370;2023-12-04T12:23:05;21.70;;;11.13;;
12601;SDS011;30282;16.436;99.370;2023-12-04T12:25:35;31.87;;;11.60;;
12601;SDS011;30282;16.436;99.370;2023-12-04T12:28:06;24.73;;;12.00;;
12601;SDS011;30282;16.436;99.370;2023-12-04T12:30:35;21.13;;;11.43;;
12601;SDS011;30282;16.436;99.370;2023-12-04T12:33:05;22.37;;;11.10;;
12601;SDS011;30282;16.436;99.370;2023-12-04T12:35:36;21.30;;;11.03;;
12601;SDS011;30282;16.436;99.370;2023-12-04T12:38:06;21.23;;;9.90;;
12601;SDS011;30282;16.436;99.370;2023-12-04T12:40:35;18.43;;;10.33;;
12601;SDS011;30282;16.436;99.370;2023-12-04T12:43:05;21.93;;;9.50;;
12601;SDS011;30282;16.436;99.370;2023-12-04T12:45:41;17.33;;;10.10;;
12601;SDS011;30282;16.436;99.370;2023-12-04T12:48:12;36.77;;;13.40;;
12601;SDS011;30282;16.436;99.370;2023-12-04T12:50:47;27.97;;;12.30;;
12601;SDS011;30282;16.436;99.370;2023-12-04T12:53:17;24.70;;;12.70;;
12601;SDS011;30282;16.436;99.370;2023-12-04T12:55:49;32.07;;;12.47;;
12601;SDS011;30282;16.436;99.370;2023-12-04T12:58:19;35.07;;;12.07;;
12601;SDS011;30282;16.436;99.370;2023-12-04T13:00:49;31.70;;;12.13;;
12601;SDS011;30282;16.436;99.370;2023-12-04T13:03:24;21.77;;;10.30;;
12601;SDS011;30282;16.436;99.370;2023-12-04T13:05:59;18.80;;;10.07;;
12601;SDS011;30282;16.436;99.370;2023-12-04T13:08:28;19.20;;;8.90;;
12601;SDS011;30282;16.436;99.370;2023-12-04T13:10:58;45.50;;;11.67;;
12601;SDS011;30282;16.436;99.370;2023-12-04T13:13:30;22.07;;;9.47;;
12601;SDS011;30282;16.436;99.370;2023-12-04T13:15:59;17.83;;;9.20;;
12601;SDS011;30282;16.436;99.370;2023-12-04T13:18:29;17.67;;;9.30;;
12601;SDS011;30282;16.436;99.370;2023-12-04T13:21:02;20.03;;;10.30;;
12601;SDS011;30282;16.436;99.370;2023-12-04T13:23:36;25.83;;;10.33;;
12601;SDS011;30282;16.436;99.370;2023-12-04T13:26:05;30.13;;;14.57;;
12601;SDS011;30282;16.436;99.370;2023-12-04T13:28:36;25.03;;;13.40;;
12601;SDS011;30282;16.436;99.370;2023-12-04T13:31:06;24.47;;;12.30;;
12601;SDS011;30282;16.436;99.370;2023-12-04T13:33:35;24.90;;;11.67;;
12601;SDS011;30282;16.436;99.370;2023-12-04T13:36:07;22.33;;;12.40;;
12601;SDS011;30282;16.436;99.370;2023-12-04T13:38:37;19.33;;;11.83;;
12601;SDS011;30282;16.436;99.370;2023-12-04T13:41:06;23.83;;;12.73;;
12601;SDS011;30282;16.436;99.370;2023-12-04T13:43:56;22.77;;;11.90;;
12601;SDS011;30282;16.436;99.370;2023-12-04T13:46:25;36.00;;;15.40;;
12601;SDS011;30282;16.436;99.370;2023-12-04T13:48:55;28.80;;;15.20;;
12601;SDS011;30282;16.436;99.370;2023-12-04T13:51:26;36.60;;;15.77;;
12601;SDS011;30282;16.436;99.370;2023-12-04T13:54:00;33.13;;;16.47;;
12601;SDS011;30282;16.436;99.370;2023-12-04T13:56:41;31.50;;;16.20;;
12601;SDS011;30282;16.436;99.370;2023-12-04T13:59:18;32.70;;;16.63;;
12601;SDS011;30282;16.436;99.370;2023-12-04T14:01:48;31.13;;;16.63;;
12601;SDS011;30282;16.436;99.370;2023-12-04T14:04:20;32.33;;;14.27;;
12601;SDS011;30282;16.436;99.370;2023-12-04T14:06:52;29.03;;;11.87;;
12601;SDS011;30282;16.436;99.370;2023-12-04T14:09:21;22.30;;;13.20;;
12601;SDS011;30282;16.436;99.370;2023-12-04T14:11:51;19.60;;;11.47;;
12601;SDS011;30282;16.436;99.370;2023-12-04T14:14:20;34.90;;;12.73;;
12601;SDS011;30282;16.436;99.370;2023-12-04T14:16:49;20.37;;;12.23;;
12601;SDS011;30282;16.436;99.370;2023-12-04T14:19:18;25.43;;;12.47;;
12601;SDS011;30282;16.436;99.370;2023-12-04T14:21:48;25.33;;;12.23;;
12601;SDS011;30282;16.436;99.370;2023-12-04T14:24:19;20.23;;;12.10;;
12601;SDS011;30282;16.436;99.370;2023-12-04T14:26:49;24.77;;;12.73;;
12601;SDS011;30282;16.436;99.370;2023-12-04T14:29:19;25.53;;;14.57;;
12601;SDS011;30282;16.436;99.370;2023-12-04T14:31:48;25.30;;;12.10;;
12601;SDS011;30282;16.436;99.370;2023-12-04T14:34:17;32.60;;;13.17;;
12601;SDS011;30282;16.436;99.370;2023-12-04T14:36:48;29.03;;;14.80;;
12601;SDS011;30282;16.436;99.370;2023-12-04T14:39:17;25.30;;;13.80;;
12601;SDS011;30282;16.436;99.370;2023-12-04T14:41:49;30.23;;;13.50;;
12601;SDS011;30282;16.436;99.370;2023-12-04T14:44:18;25.87;;;13.93;;
12601;SDS011;30282;16.436;99.370;2023-12-04T14:46:48;24.87;;;11.53;;
12601;SDS011;30282;16.436;99.370;2023-12-04T14:49:17;21.10;;;11.37;;